Main page
METAR-TAF:

METAR-TAF

Airports :

Exeter Airport

Exeter, England

latitude: 50-44N, longitude: 003-25W, elevation: 30 m

Current weather observation

The report was made 1 hour and 2 minutes ago, at 22:20 UTC
Wind 4 kt from the South
Temperature 11°C
Humidity 94%
Pressure 1000 hPa
Visibility: 6000 m

METAR: EGTE 222220Z 19004KT 6000 NSC 11/10 Q1000

Time: 00:22 (23:22 UTC)

Forecast

The report was made 3 hours and 20 minutes ago, at 20:02 UTC
Forecast valid from 22 at 21 UTC to 23 at 02 UTC
Wind 5 kt from the Southeast
Visibility: 7000 m
Probability 30% :
Temporary
from 22 at 21 UTC to 23 at 02 UTC
Visibility: 4000 m
haze

TAF: EGTE 222002Z 2221/2302 13005KT 7000 NSC PROB30 TEMPO 2221/2302 4000 HZ

Weather observations and forecasts of more than 4000 airports (METAR and TAF reports).

The available stations are represented by yellow and red dots on the map.

Hover mouse over dot to see the name of the station.

Then click to see weather observations and forecasts.

To change the map : click on the green buttons with a black cross to zoom in, on the green button with a dash to zoom out, or on the green arrows for adjacent maps.


METAR-TAF: